Greggton, Texas
Current Conditions -  °F | °C
As of 11:53 AM on Sunday 23 Nov 2014 (Local Time) from KGGG Reporting Station
Clear Clear  
Wind Chill: 68°   Ceiling: Unl
Heat Index: 68°   Visibility: 10mi
Dew Point: 58°   Wind: 13mph
Humidity: 70%   Direction: 220°SW
Pressure: 29.48"   Gusts: NA
Location:  32.5893°N, 94.7503°W
Report Text: KGGG 231753Z 22011KT 10SM CLR 20/14 A2948 RMK AO2 SLP980 60007 T02000144 10206 20161 58023
Loading
Personal Weather Stations






























Interactive Weather Map New forecast layout! Learn more

10-Day Weather Forecast

Advertisements
Track Severe Weather on mobile